createdAt,value
2017-10-01T16:05:24.607Z,101663.22
2017-10-01T16:07:52.091Z,101664.20
2017-10-01T16:10:19.584Z,101658.33
2017-10-01T16:12:47.120Z,101655.31
2017-10-01T16:15:14.629Z,101656.59
2017-10-01T16:17:42.115Z,101665.07
2017-10-01T16:20:09.663Z,101669.45
2017-10-01T16:22:37.155Z,101670.00
2017-10-01T16:25:04.689Z,101665.64
2017-10-01T16:27:32.236Z,101664.00
2017-10-01T16:29:59.727Z,101665.17
2017-10-01T16:32:27.235Z,101667.30
2017-10-01T16:34:54.774Z,101661.17
2017-10-01T16:37:22.271Z,101672.41
2017-10-01T16:39:49.755Z,101673.23
2017-10-01T16:42:17.284Z,101676.49
2017-10-01T16:44:44.765Z,101680.72
2017-10-01T16:47:12.619Z,101674.91
2017-10-01T16:49:40.178Z,101681.41
2017-10-01T16:52:07.667Z,101679.98
2017-10-01T16:54:35.155Z,101678.36
2017-10-01T16:57:02.686Z,101681.88
2017-10-01T16:59:30.199Z,101678.48
2017-10-01T17:01:57.708Z,101681.77
2017-10-01T17:04:25.255Z,101681.97
2017-10-01T17:06:52.753Z,101686.41
2017-10-01T17:09:20.240Z,101690.03
2017-10-01T17:11:47.799Z,101685.17
2017-10-01T17:14:15.291Z,101692.80
2017-10-01T17:16:42.782Z,101688.58
2017-10-01T17:19:10.350Z,101690.77
2017-10-01T17:21:37.841Z,101688.64
2017-10-01T17:24:05.330Z,101690.50
2017-10-01T17:26:33.140Z,101694.11
2017-10-01T17:29:00.703Z,101697.18
2017-10-01T17:31:28.198Z,101693.19
2017-10-01T17:33:55.730Z,101696.80
2017-10-01T17:36:23.218Z,101698.75
2017-10-01T17:38:50.735Z,101696.84
2017-10-01T17:41:18.276Z,101696.97
2017-10-01T17:43:45.763Z,101693.16
2017-10-01T17:46:13.250Z,101699.80
2017-10-01T17:48:40.788Z,101696.66
2017-10-01T17:51:08.344Z,101701.00
2017-10-01T17:53:35.828Z,101698.08
2017-10-01T17:56:03.354Z,101697.86
2017-10-01T17:58:30.845Z,101701.51
2017-10-01T18:00:58.432Z,101700.20
2017-10-01T18:03:25.923Z,101705.11
2017-10-01T18:05:53.413Z,101703.88
2017-10-01T18:08:20.951Z,101705.94
2017-10-01T18:10:48.434Z,101705.94
2017-10-01T18:13:15.930Z,101708.30
2017-10-01T18:15:43.503Z,101712.08
2017-10-01T18:18:11.020Z,101706.53
2017-10-01T18:20:38.520Z,101705.72
2017-10-01T18:23:06.047Z,101708.59
2017-10-01T18:25:33.570Z,101705.59
2017-10-01T18:28:01.060Z,101706.28
2017-10-01T18:30:28.670Z,101705.77
2017-10-01T18:32:56.156Z,101711.93
2017-10-01T18:35:23.674Z,101703.31
2017-10-01T18:37:51.230Z,101706.12
2017-10-01T18:40:18.732Z,101703.12
2017-10-01T18:42:46.251Z,101710.63
2017-10-01T18:45:13.745Z,101709.33
2017-10-01T18:47:41.304Z,101708.41
2017-10-01T18:50:08.800Z,101714.41
2017-10-01T18:52:36.289Z,101711.80
2017-10-01T18:55:03.823Z,101715.20
2017-10-01T18:57:31.426Z,101719.31
2017-10-01T18:59:58.961Z,101716.59
2017-10-01T19:02:26.611Z,101711.33
2017-10-01T19:04:54.103Z,101699.07
2017-10-01T19:07:21.674Z,101700.75
2017-10-01T19:09:49.295Z,101702.89
2017-10-01T19:12:16.804Z,101702.28
2017-10-01T19:14:44.299Z,101711.33
2017-10-01T19:17:11.823Z,101703.12
2017-10-01T19:19:39.312Z,101696.38
2017-10-01T19:22:06.891Z,101700.73
2017-10-01T19:24:34.663Z,101697.77
2017-10-01T19:27:02.154Z,101698.44
2017-10-01T19:29:29.638Z,101701.91
2017-10-01T19:31:57.205Z,101701.02
2017-10-01T19:34:24.710Z,101693.48
2017-10-01T19:36:52.201Z,101688.57
2017-10-01T19:39:19.743Z,101677.14
2017-10-01T19:41:47.775Z,101679.98
2017-10-01T19:44:16.817Z,101677.06
2017-10-01T19:46:45.519Z,101680.98
2017-10-01T19:49:13.193Z,101678.67
2017-10-01T19:51:40.739Z,101680.28
2017-10-01T19:54:08.331Z,101675.92
2017-10-01T19:56:35.852Z,101673.32
2017-10-01T19:59:03.334Z,101672.05
2017-10-01T20:01:30.824Z,101676.50
2017-10-01T20:03:58.377Z,101669.62
2017-10-01T20:06:25.927Z,101665.62
2017-10-01T20:08:53.430Z,101671.03
2017-10-01T20:11:21.156Z,101663.33
2017-10-01T20:13:48.642Z,101667.44
2017-10-01T20:16:16.136Z,101659.81
2017-10-01T20:18:43.679Z,101657.05
2017-10-01T20:21:11.186Z,101654.45
2017-10-01T20:23:38.668Z,101653.14
2017-10-01T20:26:06.203Z,101659.56
2017-10-01T20:28:33.726Z,101654.21
2017-10-01T20:31:01.211Z,101657.05
2017-10-01T20:33:28.738Z,101656.77
2017-10-01T20:35:56.235Z,101646.13
2017-10-01T20:38:23.732Z,101649.92
2017-10-01T20:40:51.264Z,101654.63
2017-10-01T20:43:18.756Z,101651.48
2017-10-01T20:45:46.271Z,101650.05
2017-10-01T20:48:13.770Z,101650.08
2017-10-01T20:50:41.306Z,101658.23
2017-10-01T20:53:08.834Z,101651.53
2017-10-01T20:55:36.351Z,101654.81
2017-10-01T20:58:03.852Z,101650.95
2017-10-01T21:00:31.415Z,101656.71
2017-10-01T21:02:58.915Z,101651.81
2017-10-01T21:05:26.411Z,101651.59
2017-10-01T21:07:53.975Z,101647.88
2017-10-01T21:10:21.474Z,101646.02
2017-10-01T21:12:48.965Z,101651.99
2017-10-01T21:15:16.501Z,101646.38
2017-10-01T21:17:44.007Z,101648.19
2017-10-01T21:20:11.605Z,101640.62
2017-10-01T21:22:39.239Z,101638.52
2017-10-01T21:25:06.728Z,101640.20
2017-10-01T21:27:34.215Z,101633.53
2017-10-01T21:30:01.761Z,101637.72
2017-10-01T21:32:29.252Z,101639.08
2017-10-01T21:34:56.735Z,101637.81
2017-10-01T21:37:24.301Z,101641.51
2017-10-01T21:39:51.790Z,101647.39
2017-10-01T21:42:19.311Z,101636.31
2017-10-01T21:44:46.835Z,101639.47
2017-10-01T21:47:14.320Z,101641.24
2017-10-01T21:49:41.810Z,101648.36
2017-10-01T21:52:09.444Z,101643.69
2017-10-01T21:54:37.040Z,101649.78
2017-10-01T21:57:04.542Z,101640.53
2017-10-01T21:59:32.135Z,101642.95
2017-10-01T22:01:59.622Z,101634.15
2017-10-01T22:04:27.110Z,101629.42
2017-10-01T22:06:54.650Z,101620.94
2017-10-01T22:09:22.140Z,101617.03
2017-10-01T22:11:49.631Z,101617.57
2017-10-01T22:14:17.172Z,101619.43
2017-10-01T22:16:44.662Z,101607.73
2017-10-01T22:19:12.195Z,101596.23
2017-10-01T22:21:39.686Z,101588.61
2017-10-01T22:24:07.181Z,101587.05
2017-10-01T22:26:34.967Z,101583.66
2017-10-01T22:29:02.460Z,101588.73
2017-10-01T22:31:29.990Z,101581.61
2017-10-01T22:33:57.647Z,101571.47
2017-10-01T22:36:25.129Z,101571.30
2017-10-01T22:38:52.664Z,101568.33
2017-10-01T22:41:20.213Z,101561.77
2017-10-01T22:43:47.788Z,101559.79
2017-10-01T22:46:15.364Z,101557.02
2017-10-01T22:48:42.911Z,101558.38
2017-10-01T22:51:10.408Z,101567.35
2017-10-01T22:53:37.894Z,101562.13
2017-10-01T22:56:05.685Z,101560.88
2017-10-01T22:58:33.179Z,101552.55
2017-10-01T23:01:00.671Z,101550.45
2017-10-01T23:03:28.219Z,101557.57
2017-10-01T23:05:55.710Z,101546.20
2017-10-01T23:08:23.198Z,101546.11
2017-10-01T23:10:50.718Z,101546.77
2017-10-01T23:13:18.283Z,101549.09
2017-10-01T23:15:45.777Z,101549.71
2017-10-01T23:18:13.272Z,101550.98
2017-10-01T23:20:40.794Z,101531.99
2017-10-01T23:23:08.432Z,101529.87
2017-10-01T23:25:35.994Z,101530.11
2017-10-01T23:28:03.481Z,101528.00
2017-10-01T23:30:31.103Z,101533.77
2017-10-01T23:32:58.600Z,101540.25
2017-10-01T23:35:26.093Z,101544.47
2017-10-01T23:37:53.780Z,101544.58
2017-10-01T23:40:21.271Z,101538.20
2017-10-01T23:42:48.764Z,101536.02
2017-10-01T23:45:16.300Z,101536.31
2017-10-01T23:47:43.796Z,101543.02
2017-10-01T23:50:11.288Z,101551.16
2017-10-01T23:52:38.850Z,101561.40
2017-10-01T23:55:06.341Z,101548.44
2017-10-01T23:57:33.831Z,101541.56
